sensor_id;sensor_type;location;lat;lon;timestamp;temperature;humidity
33655;DHT22;19997;51.274;22.506;2023-01-15T00:01:21;4.30;99.90
33655;DHT22;19997;51.274;22.506;2023-01-15T00:03:48;4.30;99.90
33655;DHT22;19997;51.274;22.506;2023-01-15T00:06:15;4.40;99.90
33655;DHT22;19997;51.274;22.506;2023-01-15T00:08:43;4.30;99.90
33655;DHT22;19997;51.274;22.506;2023-01-15T00:11:11;4.40;99.90
33655;DHT22;19997;51.274;22.506;2023-01-15T00:13:38;4.40;99.90
33655;DHT22;19997;51.274;22.506;2023-01-15T00:16:07;4.40;99.90
33655;DHT22;19997;51.274;22.506;2023-01-15T00:18:37;4.40;99.90
33655;DHT22;19997;51.274;22.506;2023-01-15T00:21:07;4.40;99.90
33655;DHT22;19997;51.274;22.506;2023-01-15T00:23:34;4.40;99.90
33655;DHT22;19997;51.274;22.506;2023-01-15T00:26:21;4.40;99.90
33655;DHT22;19997;51.274;22.506;2023-01-15T00:29:06;4.40;99.90
33655;DHT22;19997;51.274;22.506;2023-01-15T00:31:35;4.40;99.90
33655;DHT22;19997;51.274;22.506;2023-01-15T00:34:03;4.40;99.90
33655;DHT22;19997;51.274;22.506;2023-01-15T00:36:30;4.40;99.90
33655;DHT22;19997;51.274;22.506;2023-01-15T00:38:58;4.40;99.90
33655;DHT22;19997;51.274;22.506;2023-01-15T00:41:25;4.40;99.90
33655;DHT22;19997;51.274;22.506;2023-01-15T00:43:52;4.40;99.90
33655;DHT22;19997;51.274;22.506;2023-01-15T00:46:20;4.40;99.90
33655;DHT22;19997;51.274;22.506;2023-01-15T00:48:47;4.40;99.90
33655;DHT22;19997;51.274;22.506;2023-01-15T00:51:15;4.40;99.90
33655;DHT22;19997;51.274;22.506;2023-01-15T00:53:42;4.40;99.90
33655;DHT22;19997;51.274;22.506;2023-01-15T00:56:09;4.40;99.90
33655;DHT22;19997;51.274;22.506;2023-01-15T00:58:36;4.40;99.90
33655;DHT22;19997;51.274;22.506;2023-01-15T01:01:04;4.40;99.90
33655;DHT22;19997;51.274;22.506;2023-01-15T01:03:31;4.40;99.90
33655;DHT22;19997;51.274;22.506;2023-01-15T01:06:02;4.40;99.90
33655;DHT22;19997;51.274;22.506;2023-01-15T01:08:31;4.40;99.90
33655;DHT22;19997;51.274;22.506;2023-01-15T01:11:03;4.40;99.90
33655;DHT22;19997;51.274;22.506;2023-01-15T01:13:31;4.50;99.90
33655;DHT22;19997;51.274;22.506;2023-01-15T01:15:58;4.50;99.90
33655;DHT22;19997;51.274;22.506;2023-01-15T01:18:26;4.50;99.90
33655;DHT22;19997;51.274;22.506;2023-01-15T01:20:54;4.50;99.90
33655;DHT22;19997;51.274;22.506;2023-01-15T01:23:22;4.50;99.90
33655;DHT22;19997;51.274;22.506;2023-01-15T01:25:50;4.50;99.90
33655;DHT22;19997;51.274;22.506;2023-01-15T01:28:18;4.50;99.90
33655;DHT22;19997;51.274;22.506;2023-01-15T01:30:45;4.50;99.90
33655;DHT22;19997;51.274;22.506;2023-01-15T01:33:12;4.50;99.90
33655;DHT22;19997;51.274;22.506;2023-01-15T01:35:39;4.50;99.90
33655;DHT22;19997;51.274;22.506;2023-01-15T01:38:06;4.50;99.90
33655;DHT22;19997;51.274;22.506;2023-01-15T01:40:33;4.50;99.90
33655;DHT22;19997;51.274;22.506;2023-01-15T01:43:01;4.50;99.90
33655;DHT22;19997;51.274;22.506;2023-01-15T01:45:30;4.50;99.90
33655;DHT22;19997;51.274;22.506;2023-01-15T01:48:00;4.50;99.90
33655;DHT22;19997;51.274;22.506;2023-01-15T01:50:30;4.50;99.90
33655;DHT22;19997;51.274;22.506;2023-01-15T01:53:00;4.50;99.90
33655;DHT22;19997;51.274;22.506;2023-01-15T01:55:30;4.50;99.90
33655;DHT22;19997;51.274;22.506;2023-01-15T01:58:01;4.40;99.90
33655;DHT22;19997;51.274;22.506;2023-01-15T02:00:30;4.40;99.90
33655;DHT22;19997;51.274;22.506;2023-01-15T02:02:58;4.40;99.90
33655;DHT22;19997;51.274;22.506;2023-01-15T02:05:30;4.40;99.90
33655;DHT22;19997;51.274;22.506;2023-01-15T02:07:59;4.40;99.90
33655;DHT22;19997;51.274;22.506;2023-01-15T02:10:27;4.40;99.90
33655;DHT22;19997;51.274;22.506;2023-01-15T02:12:59;4.30;99.90
33655;DHT22;19997;51.274;22.506;2023-01-15T02:15:32;4.30;99.90
33655;DHT22;19997;51.274;22.506;2023-01-15T02:18:07;4.30;99.90
33655;DHT22;19997;51.274;22.506;2023-01-15T02:20:39;4.30;99.90
33655;DHT22;19997;51.274;22.506;2023-01-15T02:23:22;4.30;99.90
33655;DHT22;19997;51.274;22.506;2023-01-15T02:26:06;4.30;99.90
33655;DHT22;19997;51.274;22.506;2023-01-15T02:28:39;4.30;99.90
33655;DHT22;19997;51.274;22.506;2023-01-15T02:31:11;4.30;99.90
33655;DHT22;19997;51.274;22.506;2023-01-15T02:33:43;4.30;99.90
33655;DHT22;19997;51.274;22.506;2023-01-15T02:36:15;4.30;99.90
33655;DHT22;19997;51.274;22.506;2023-01-15T02:38:49;4.30;99.90
33655;DHT22;19997;51.274;22.506;2023-01-15T02:41:22;4.40;99.90
33655;DHT22;19997;51.274;22.506;2023-01-15T02:43:54;4.40;99.90
33655;DHT22;19997;51.274;22.506;2023-01-15T02:46:28;4.40;99.90
33655;DHT22;19997;51.274;22.506;2023-01-15T02:48:58;4.40;99.90
33655;DHT22;19997;51.274;22.506;2023-01-15T02:51:35;4.40;99.90
33655;DHT22;19997;51.274;22.506;2023-01-15T02:54:07;4.40;99.90
33655;DHT22;19997;51.274;22.506;2023-01-15T02:56:36;4.40;99.90
33655;DHT22;19997;51.274;22.506;2023-01-15T02:59:10;4.40;99.90
33655;DHT22;19997;51.274;22.506;2023-01-15T03:01:45;4.40;99.90
33655;DHT22;19997;51.274;22.506;2023-01-15T03:04:18;4.50;99.90
33655;DHT22;19997;51.274;22.506;2023-01-15T03:06:50;4.50;99.90
33655;DHT22;19997;51.274;22.506;2023-01-15T03:09:18;4.40;99.90
33655;DHT22;19997;51.274;22.506;2023-01-15T03:11:50;4.50;99.90
33655;DHT22;19997;51.274;22.506;2023-01-15T03:14:25;4.50;99.90
33655;DHT22;19997;51.274;22.506;2023-01-15T03:16:58;4.60;99.90
33655;DHT22;19997;51.274;22.506;2023-01-15T03:19:31;4.60;99.90
33655;DHT22;19997;51.274;22.506;2023-01-15T03:22:07;4.60;99.90
33655;DHT22;19997;51.274;22.506;2023-01-15T03:24:40;4.60;99.90
33655;DHT22;19997;51.274;22.506;2023-01-15T03:27:08;4.70;99.90
33655;DHT22;19997;51.274;22.506;2023-01-15T03:29:41;4.70;99.90
33655;DHT22;19997;51.274;22.506;2023-01-15T03:32:10;4.70;99.90
33655;DHT22;19997;51.274;22.506;2023-01-15T03:34:41;4.70;99.90
33655;DHT22;19997;51.274;22.506;2023-01-15T03:37:10;4.80;99.90
33655;DHT22;19997;51.274;22.506;2023-01-15T03:39:40;4.80;99.90
33655;DHT22;19997;51.274;22.506;2023-01-15T03:42:28;4.80;99.90
33655;DHT22;19997;51.274;22.506;2023-01-15T03:45:04;4.90;99.90
33655;DHT22;19997;51.274;22.506;2023-01-15T03:47:40;4.90;99.90
33655;DHT22;19997;51.274;22.506;2023-01-15T03:50:16;4.90;99.90
33655;DHT22;19997;51.274;22.506;2023-01-15T03:52:49;4.90;99.90
33655;DHT22;19997;51.274;22.506;2023-01-15T03:55:22;4.90;99.90
33655;DHT22;19997;51.274;22.506;2023-01-15T03:58:00;4.90;99.90
33655;DHT22;19997;51.274;22.506;2023-01-15T04:00:37;4.90;99.90
33655;DHT22;19997;51.274;22.506;2023-01-15T04:03:08;4.90;99.90
33655;DHT22;19997;51.274;22.506;2023-01-15T04:05:37;4.80;99.90
33655;DHT22;19997;51.274;22.506;2023-01-15T04:08:06;4.80;99.90
33655;DHT22;19997;51.274;22.506;2023-01-15T04:10:35;4.80;99.90
33655;DHT22;19997;51.274;22.506;2023-01-15T04:13:05;4.80;99.90
33655;DHT22;19997;51.274;22.506;2023-01-15T04:15:33;4.80;99.90
33655;DHT22;19997;51.274;22.506;2023-01-15T04:18:01;4.80;99.90
33655;DHT22;19997;51.274;22.506;2023-01-15T04:20:29;4.70;99.90
33655;DHT22;19997;51.274;22.506;2023-01-15T04:22:56;4.70;99.90
33655;DHT22;19997;51.274;22.506;2023-01-15T04:25:23;4.70;99.90
33655;DHT22;19997;51.274;22.506;2023-01-15T04:27:53;4.70;99.90
33655;DHT22;19997;51.274;22.506;2023-01-15T04:30:20;4.70;99.90
33655;DHT22;19997;51.274;22.506;2023-01-15T04:32:49;4.70;99.90
33655;DHT22;19997;51.274;22.506;2023-01-15T04:35:16;4.70;99.90
33655;DHT22;19997;51.274;22.506;2023-01-15T04:37:43;4.70;99.90
33655;DHT22;19997;51.274;22.506;2023-01-15T04:40:11;4.70;99.90
33655;DHT22;19997;51.274;22.506;2023-01-15T04:42:58;4.70;99.90
33655;DHT22;19997;51.274;22.506;2023-01-15T04:45:43;4.70;99.90
33655;DHT22;19997;51.274;22.506;2023-01-15T04:48:11;4.60;99.90
33655;DHT22;19997;51.274;22.506;2023-01-15T04:50:38;4.70;99.90
33655;DHT22;19997;51.274;22.506;2023-01-15T04:53:05;4.70;99.90
33655;DHT22;19997;51.274;22.506;2023-01-15T04:55:33;4.70;99.90
33655;DHT22;19997;51.274;22.506;2023-01-15T04:58:00;4.70;99.90
33655;DHT22;19997;51.274;22.506;2023-01-15T05:00:27;4.70;99.90
33655;DHT22;19997;51.274;22.506;2023-01-15T05:02:55;4.70;99.90
33655;DHT22;19997;51.274;22.506;2023-01-15T05:05:23;4.70;99.90
33655;DHT22;19997;51.274;22.506;2023-01-15T05:07:50;4.70;99.90
33655;DHT22;19997;51.274;22.506;2023-01-15T05:10:17;4.70;99.90
33655;DHT22;19997;51.274;22.506;2023-01-15T05:12:45;4.70;99.90
33655;DHT22;19997;51.274;22.506;2023-01-15T05:15:12;4.80;99.90
33655;DHT22;19997;51.274;22.506;2023-01-15T05:17:39;4.80;99.90
33655;DHT22;19997;51.274;22.506;2023-01-15T05:20:08;4.70;99.90
33655;DHT22;19997;51.274;22.506;2023-01-15T05:22:36;4.80;99.90
33655;DHT22;19997;51.274;22.506;2023-01-15T05:25:04;4.80;99.90
33655;DHT22;19997;51.274;22.506;2023-01-15T05:27:31;4.80;99.90
33655;DHT22;19997;51.274;22.506;2023-01-15T05:29:58;4.90;99.90
33655;DHT22;19997;51.274;22.506;2023-01-15T05:32:25;4.90;99.90
33655;DHT22;19997;51.274;22.506;2023-01-15T05:34:52;4.90;99.90
33655;DHT22;19997;51.274;22.506;2023-01-15T05:37:19;4.90;99.90
33655;DHT22;19997;51.274;22.506;2023-01-15T05:39:48;4.90;99.90
33655;DHT22;19997;51.274;22.506;2023-01-15T05:42:15;4.90;99.90
33655;DHT22;19997;51.274;22.506;2023-01-15T05:44:42;4.90;99.90
33655;DHT22;19997;51.274;22.506;2023-01-15T05:47:09;4.90;99.90
33655;DHT22;19997;51.274;22.506;2023-01-15T05:49:37;4.90;99.90
33655;DHT22;19997;51.274;22.506;2023-01-15T05:52:06;5.00;99.90
33655;DHT22;19997;51.274;22.506;2023-01-15T05:54:34;5.00;99.90
33655;DHT22;19997;51.274;22.506;2023-01-15T05:57:03;5.00;99.90
33655;DHT22;19997;51.274;22.506;2023-01-15T05:59:31;5.00;99.90
33655;DHT22;19997;51.274;22.506;2023-01-15T06:01:58;5.00;99.90
33655;DHT22;19997;51.274;22.506;2023-01-15T06:04:25;5.00;99.90
33655;DHT22;19997;51.274;22.506;2023-01-15T06:06:54;5.00;99.90
33655;DHT22;19997;51.274;22.506;2023-01-15T06:09:22;5.00;99.90
33655;DHT22;19997;51.274;22.506;2023-01-15T06:11:52;5.10;99.90
33655;DHT22;19997;51.274;22.506;2023-01-15T06:14:21;5.10;99.90
33655;DHT22;19997;51.274;22.506;2023-01-15T06:16:48;5.10;99.90
33655;DHT22;19997;51.274;22.506;2023-01-15T06:19:16;5.20;99.90
33655;DHT22;19997;51.274;22.506;2023-01-15T06:21:43;5.20;99.90
33655;DHT22;19997;51.274;22.506;2023-01-15T06:24:10;5.20;99.90
33655;DHT22;19997;51.274;22.506;2023-01-15T06:26:37;5.20;99.90
33655;DHT22;19997;51.274;22.506;2023-01-15T06:29:05;5.20;99.90
33655;DHT22;19997;51.274;22.506;2023-01-15T06:31:33;5.30;99.90
33655;DHT22;19997;51.274;22.506;2023-01-15T06:34:00;5.30;99.90
33655;DHT22;19997;51.274;22.506;2023-01-15T06:36:28;5.30;99.90
33655;DHT22;19997;51.274;22.506;2023-01-15T06:38:55;5.40;99.90
33655;DHT22;19997;51.274;22.506;2023-01-15T06:41:25;5.40;99.90
33655;DHT22;19997;51.274;22.506;2023-01-15T06:44:11;5.50;99.90
33655;DHT22;19997;51.274;22.506;2023-01-15T06:46:57;5.50;99.90
33655;DHT22;19997;51.274;22.506;2023-01-15T06:49:42;5.50;99.90
33655;DHT22;19997;51.274;22.506;2023-01-15T06:52:09;5.60;99.90
33655;DHT22;19997;51.274;22.506;2023-01-15T06:54:36;5.60;99.70
33655;DHT22;19997;51.274;22.506;2023-01-15T06:57:03;5.60;99.70
33655;DHT22;19997;51.274;22.506;2023-01-15T06:59:31;5.70;99.80
33655;DHT22;19997;51.274;22.506;2023-01-15T07:01:59;5.70;99.10
33655;DHT22;19997;51.274;22.506;2023-01-15T07:04:27;5.80;98.90
33655;DHT22;19997;51.274;22.506;2023-01-15T07:06:54;5.90;98.20
33655;DHT22;19997;51.274;22.506;2023-01-15T07:09:22;6.00;98.00
33655;DHT22;19997;51.274;22.506;2023-01-15T07:11:49;6.00;97.50
33655;DHT22;19997;51.274;22.506;2023-01-15T07:14:17;6.10;97.40
33655;DHT22;19997;51.274;22.506;2023-01-15T07:16:44;6.20;97.20
33655;DHT22;19997;51.274;22.506;2023-01-15T07:19:12;6.20;96.80
33655;DHT22;19997;51.274;22.506;2023-01-15T07:21:41;6.30;96.30
33655;DHT22;19997;51.274;22.506;2023-01-15T07:24:09;6.30;96.10
33655;DHT22;19997;51.274;22.506;2023-01-15T07:26:36;6.30;96.10
33655;DHT22;19997;51.274;22.506;2023-01-15T07:29:03;6.30;95.90
33655;DHT22;19997;51.274;22.506;2023-01-15T07:31:31;6.40;95.40
33655;DHT22;19997;51.274;22.506;2023-01-15T07:33:58;6.40;95.40
33655;DHT22;19997;51.274;22.506;2023-01-15T07:36:27;6.50;94.90
33655;DHT22;19997;51.274;22.506;2023-01-15T07:38:54;6.50;94.80
33655;DHT22;19997;51.274;22.506;2023-01-15T07:41:21;6.60;94.90
33655;DHT22;19997;51.274;22.506;2023-01-15T07:44:09;6.60;94.70
33655;DHT22;19997;51.274;22.506;2023-01-15T07:46:53;6.70;94.30
33655;DHT22;19997;51.274;22.506;2023-01-15T07:49:39;6.80;94.30
33655;DHT22;19997;51.274;22.506;2023-01-15T07:52:15;6.90;94.00
33655;DHT22;19997;51.274;22.506;2023-01-15T07:54:43;6.90;93.60
33655;DHT22;19997;51.274;22.506;2023-01-15T07:57:11;7.00;93.30
33655;DHT22;19997;51.274;22.506;2023-01-15T07:59:38;7.00;92.90
33655;DHT22;19997;51.274;22.506;2023-01-15T08:02:05;7.10;92.90
33655;DHT22;19997;51.274;22.506;2023-01-15T08:04:32;7.10;92.80
33655;DHT22;19997;51.274;22.506;2023-01-15T08:07:00;7.10;92.30
33655;DHT22;19997;51.274;22.506;2023-01-15T08:09:29;7.20;92.30
33655;DHT22;19997;51.274;22.506;2023-01-15T08:11:58;7.20;92.20
33655;DHT22;19997;51.274;22.506;2023-01-15T08:14:43;7.30;92.00
33655;DHT22;19997;51.274;22.506;2023-01-15T08:17:28;7.30;91.80
33655;DHT22;19997;51.274;22.506;2023-01-15T08:19:56;7.30;91.90
33655;DHT22;19997;51.274;22.506;2023-01-15T08:22:24;7.40;91.70
33655;DHT22;19997;51.274;22.506;2023-01-15T08:24:52;7.40;91.60
33655;DHT22;19997;51.274;22.506;2023-01-15T08:27:19;7.50;91.50
33655;DHT22;19997;51.274;22.506;2023-01-15T08:29:46;7.60;91.50
33655;DHT22;19997;51.274;22.506;2023-01-15T08:32:13;7.60;91.20
33655;DHT22;19997;51.274;22.506;2023-01-15T08:34:40;7.60;91.20
33655;DHT22;19997;51.274;22.506;2023-01-15T08:37:08;7.60;91.10
33655;DHT22;19997;51.274;22.506;2023-01-15T08:39:35;7.70;91.10
33655;DHT22;19997;51.274;22.506;2023-01-15T08:42:03;7.70;90.90
33655;DHT22;19997;51.274;22.506;2023-01-15T08:44:30;7.80;90.80
33655;DHT22;19997;51.274;22.506;2023-01-15T08:46:57;7.80;90.90
33655;DHT22;19997;51.274;22.506;2023-01-15T08:49:24;7.90;90.70
33655;DHT22;19997;51.274;22.506;2023-01-15T08:51:52;7.90;90.40
33655;DHT22;19997;51.274;22.506;2023-01-15T08:54:20;7.90;90.30
33655;DHT22;19997;51.274;22.506;2023-01-15T08:56:49;8.00;90.20
33655;DHT22;19997;51.274;22.506;2023-01-15T08:59:17;8.00;90.20
33655;DHT22;19997;51.274;22.506;2023-01-15T09:01:44;8.00;90.00
33655;DHT22;19997;51.274;22.506;2023-01-15T09:04:13;8.10;89.20
33655;DHT22;19997;51.274;22.506;2023-01-15T09:06:40;8.00;89.30
33655;DHT22;19997;51.274;22.506;2023-01-15T09:09:07;8.10;89.30
33655;DHT22;19997;51.274;22.506;2023-01-15T09:11:35;8.20;90.00
33655;DHT22;19997;51.274;22.506;2023-01-15T09:14:05;8.20;89.10
33655;DHT22;19997;51.274;22.506;2023-01-15T09:16:34;8.30;88.70
33655;DHT22;19997;51.274;22.506;2023-01-15T09:19:01;8.30;88.50
33655;DHT22;19997;51.274;22.506;2023-01-15T09:21:28;8.30;88.50
33655;DHT22;19997;51.274;22.506;2023-01-15T09:23:55;8.40;88.60
33655;DHT22;19997;51.274;22.506;2023-01-15T09:26:28;8.50;88.30
33655;DHT22;19997;51.274;22.506;2023-01-15T09:28:56;8.50;87.90
33655;DHT22;19997;51.274;22.506;2023-01-15T09:31:24;8.50;87.60
33655;DHT22;19997;51.274;22.506;2023-01-15T09:33:52;8.60;87.80
33655;DHT22;19997;51.274;22.506;2023-01-15T09:36:23;8.60;87.70
33655;DHT22;19997;51.274;22.506;2023-01-15T09:38:50;8.60;87.00
33655;DHT22;19997;51.274;22.506;2023-01-15T09:41:18;8.60;86.80
33655;DHT22;19997;51.274;22.506;2023-01-15T09:44:14;8.60;86.80
33655;DHT22;19997;51.274;22.506;2023-01-15T09:46:52;8.60;87.30
33655;DHT22;19997;51.274;22.506;2023-01-15T09:49:34;8.70;87.30
33655;DHT22;19997;51.274;22.506;2023-01-15T09:52:11;8.80;86.70
33655;DHT22;19997;51.274;22.506;2023-01-15T09:54:47;8.80;86.30
33655;DHT22;19997;51.274;22.506;2023-01-15T09:57:17;8.80;86.40
33655;DHT22;19997;51.274;22.506;2023-01-15T09:59:47;8.90;86.50
33655;DHT22;19997;51.274;22.506;2023-01-15T10:02:21;8.90;86.30
33655;DHT22;19997;51.274;22.506;2023-01-15T10:04:55;8.90;85.80
33655;DHT22;19997;51.274;22.506;2023-01-15T10:07:27;9.00;85.80
33655;DHT22;19997;51.274;22.506;2023-01-15T10:09:59;9.00;86.70
33655;DHT22;19997;51.274;22.506;2023-01-15T10:12:29;9.00;85.80
33655;DHT22;19997;51.274;22.506;2023-01-15T10:15:23;9.00;85.90
33655;DHT22;19997;51.274;22.506;2023-01-15T10:17:52;9.10;85.90
33655;DHT22;19997;51.274;22.506;2023-01-15T10:23:20;9.10;85.10
33655;DHT22;19997;51.274;22.506;2023-01-15T10:25:56;9.10;85.10
33655;DHT22;19997;51.274;22.506;2023-01-15T10:28:29;9.10;85.20
33655;DHT22;19997;51.274;22.506;2023-01-15T10:31:00;9.10;85.20
33655;DHT22;19997;51.274;22.506;2023-01-15T10:33:45;9.10;85.30
33655;DHT22;19997;51.274;22.506;2023-01-15T10:36:23;9.10;85.10
33655;DHT22;19997;51.274;22.506;2023-01-15T10:38:58;9.10;85.00
33655;DHT22;19997;51.274;22.506;2023-01-15T10:44:39;9.10;84.70
33655;DHT22;19997;51.274;22.506;2023-01-15T10:47:18;9.10;84.80
33655;DHT22;19997;51.274;22.506;2023-01-15T10:49:49;9.10;84.90
33655;DHT22;19997;51.274;22.506;2023-01-15T10:52:24;9.10;84.90
33655;DHT22;19997;51.274;22.506;2023-01-15T10:54:57;9.10;84.60
33655;DHT22;19997;51.274;22.506;2023-01-15T10:57:37;9.10;84.60
33655;DHT22;19997;51.274;22.506;2023-01-15T11:00:09;9.10;84.60
33655;DHT22;19997;51.274;22.506;2023-01-15T11:02:39;9.10;84.30
33655;DHT22;19997;51.274;22.506;2023-01-15T11:05:11;9.10;84.30
33655;DHT22;19997;51.274;22.506;2023-01-15T11:07:42;9.20;84.60
33655;DHT22;19997;51.274;22.506;2023-01-15T11:10:13;9.20;84.70
33655;DHT22;19997;51.274;22.506;2023-01-15T11:12:47;9.30;84.50
33655;DHT22;19997;51.274;22.506;2023-01-15T11:15:33;9.40;84.10
33655;DHT22;19997;51.274;22.506;2023-01-15T11:18:23;9.40;83.70
33655;DHT22;19997;51.274;22.506;2023-01-15T11:21:10;9.40;83.40
33655;DHT22;19997;51.274;22.506;2023-01-15T11:23:40;9.40;83.40
33655;DHT22;19997;51.274;22.506;2023-01-15T11:26:08;9.40;83.50
33655;DHT22;19997;51.274;22.506;2023-01-15T11:28:37;9.50;83.30
33655;DHT22;19997;51.274;22.506;2023-01-15T11:31:07;9.50;82.70
33655;DHT22;19997;51.274;22.506;2023-01-15T11:33:34;9.40;82.90
33655;DHT22;19997;51.274;22.506;2023-01-15T11:36:04;9.40;83.10
33655;DHT22;19997;51.274;22.506;2023-01-15T11:38:43;9.40;83.20
33655;DHT22;19997;51.274;22.506;2023-01-15T11:41:20;9.40;83.00
33655;DHT22;19997;51.274;22.506;2023-01-15T11:43:55;9.50;83.10
33655;DHT22;19997;51.274;22.506;2023-01-15T11:46:40;9.40;82.30
33655;DHT22;19997;51.274;22.506;2023-01-15T11:49:24;9.40;82.60
33655;DHT22;19997;51.274;22.506;2023-01-15T11:52:12;9.40;82.80
33655;DHT22;19997;51.274;22.506;2023-01-15T11:54:43;9.30;82.70
33655;DHT22;19997;51.274;22.506;2023-01-15T11:57:22;9.30;82.80
33655;DHT22;19997;51.274;22.506;2023-01-15T11:59:51;9.30;82.50
33655;DHT22;19997;51.274;22.506;2023-01-15T12:02:28;9.20;82.90
33655;DHT22;19997;51.274;22.506;2023-01-15T12:04:59;9.20;82.70
33655;DHT22;19997;51.274;22.506;2023-01-15T12:07:28;9.20;83.00
33655;DHT22;19997;51.274;22.506;2023-01-15T12:10:14;9.30;83.10
33655;DHT22;19997;51.274;22.506;2023-01-15T12:12:55;9.30;82.80
33655;DHT22;19997;51.274;22.506;2023-01-15T12:15:31;9.30;82.60
33655;DHT22;19997;51.274;22.506;2023-01-15T12:18:13;9.30;82.50
33655;DHT22;19997;51.274;22.506;2023-01-15T12:21:00;9.30;82.00
33655;DHT22;19997;51.274;22.506;2023-01-15T12:23:57;9.30;81.90
33655;DHT22;19997;51.274;22.506;2023-01-15T12:26:32;9.30;82.30
33655;DHT22;19997;51.274;22.506;2023-01-15T12:29:04;9.40;82.20
33655;DHT22;19997;51.274;22.506;2023-01-15T12:31:35;9.40;82.00
33655;DHT22;19997;51.274;22.506;2023-01-15T12:34:10;9.40;82.10
33655;DHT22;19997;51.274;22.506;2023-01-15T12:36:44;9.30;81.70
33655;DHT22;19997;51.274;22.506;2023-01-15T12:39:16;9.30;81.60
33655;DHT22;19997;51.274;22.506;2023-01-15T12:41:51;9.30;81.60
33655;DHT22;19997;51.274;22.506;2023-01-15T12:44:40;9.30;81.50
33655;DHT22;19997;51.274;22.506;2023-01-15T12:47:35;9.20;80.60
33655;DHT22;19997;51.274;22.506;2023-01-15T12:50:20;9.10;80.10
33655;DHT22;19997;51.274;22.506;2023-01-15T12:52:50;9.10;80.50
33655;DHT22;19997;51.274;22.506;2023-01-15T12:55:24;9.00;80.50
33655;DHT22;19997;51.274;22.506;2023-01-15T12:57:56;9.00;81.00
33655;DHT22;19997;51.274;22.506;2023-01-15T13:00:28;9.00;81.10
33655;DHT22;19997;51.274;22.506;2023-01-15T13:03:04;9.00;81.20
33655;DHT22;19997;51.274;22.506;2023-01-15T13:05:38;9.00;81.10
33655;DHT22;19997;51.274;22.506;2023-01-15T13:08:11;9.00;81.40
33655;DHT22;19997;51.274;22.506;2023-01-15T13:10:40;9.00;81.50
33655;DHT22;19997;51.274;22.506;2023-01-15T13:13:14;9.00;81.50
33655;DHT22;19997;51.274;22.506;2023-01-15T13:15:52;9.00;81.60
33655;DHT22;19997;51.274;22.506;2023-01-15T13:18:28;9.00;81.20
33655;DHT22;19997;51.274;22.506;2023-01-15T13:20:59;8.90;81.20
33655;DHT22;19997;51.274;22.506;2023-01-15T13:23:42;8.90;81.10
33655;DHT22;19997;51.274;22.506;2023-01-15T13:26:21;8.80;80.60
33655;DHT22;19997;51.274;22.506;2023-01-15T13:29:04;8.70;81.20
33655;DHT22;19997;51.274;22.506;2023-01-15T13:31:57;8.70;81.70
33655;DHT22;19997;51.274;22.506;2023-01-15T13:34:33;8.70;82.10
33655;DHT22;19997;51.274;22.506;2023-01-15T13:37:05;8.70;82.40
33655;DHT22;19997;51.274;22.506;2023-01-15T13:39:39;8.70;82.50
33655;DHT22;19997;51.274;22.506;2023-01-15T13:42:16;8.70;83.00
33655;DHT22;19997;51.274;22.506;2023-01-15T13:45:25;8.70;83.30
33655;DHT22;19997;51.274;22.506;2023-01-15T13:47:57;8.60;83.50
33655;DHT22;19997;51.274;22.506;2023-01-15T13:50:28;8.60;83.30
33655;DHT22;19997;51.274;22.506;2023-01-15T13:53:06;8.50;83.20
33655;DHT22;19997;51.274;22.506;2023-01-15T13:55:37;8.50;84.10
33655;DHT22;19997;51.274;22.506;2023-01-15T13:58:21;8.40;84.00
33655;DHT22;19997;51.274;22.506;2023-01-15T14:01:00;8.30;84.60
33655;DHT22;19997;51.274;22.506;2023-01-15T14:03:29;8.30;85.50
33655;DHT22;19997;51.274;22.506;2023-01-15T14:05:57;8.20;85.90
33655;DHT22;19997;51.274;22.506;2023-01-15T14:08:27;8.20;86.50
33655;DHT22;19997;51.274;22.506;2023-01-15T14:10:54;8.10;87.00
33655;DHT22;19997;51.274;22.506;2023-01-15T14:13:45;8.10;87.40
33655;DHT22;19997;51.274;22.506;2023-01-15T14:16:26;8.00;88.10
33655;DHT22;19997;51.274;22.506;2023-01-15T14:21:50;7.90;88.90
33655;DHT22;19997;51.274;22.506;2023-01-15T14:24:46;7.90;89.00
33655;DHT22;19997;51.274;22.506;2023-01-15T14:27:30;7.90;89.50
33655;DHT22;19997;51.274;22.506;2023-01-15T14:30:29;7.90;89.80
33655;DHT22;19997;51.274;22.506;2023-01-15T14:33:10;7.80;90.00
33655;DHT22;19997;51.274;22.506;2023-01-15T14:35:44;7.80;90.20
33655;DHT22;19997;51.274;22.506;2023-01-15T14:38:15;7.70;90.40
33655;DHT22;19997;51.274;22.506;2023-01-15T14:40:52;7.70;90.60
33655;DHT22;19997;51.274;22.506;2023-01-15T14:43:22;7.60;90.80
33655;DHT22;19997;51.274;22.506;2023-01-15T14:45:50;7.60;91.00
33655;DHT22;19997;51.274;22.506;2023-01-15T14:48:33;7.50;91.20
33655;DHT22;19997;51.274;22.506;2023-01-15T14:51:09;7.50;91.40
33655;DHT22;19997;51.274;22.506;2023-01-15T14:53:39;7.50;91.50
33655;DHT22;19997;51.274;22.506;2023-01-15T14:56:17;7.50;91.50
33655;DHT22;19997;51.274;22.506;2023-01-15T14:58:49;7.50;91.80
33655;DHT22;19997;51.274;22.506;2023-01-15T15:01:40;7.50;92.00
33655;DHT22;19997;51.274;22.506;2023-01-15T15:04:21;7.40;92.20
33655;DHT22;19997;51.274;22.506;2023-01-15T15:06:52;7.40;92.50
33655;DHT22;19997;51.274;22.506;2023-01-15T15:09:30;7.30;92.70
33655;DHT22;19997;51.274;22.506;2023-01-15T15:12:13;7.30;93.10
33655;DHT22;19997;51.274;22.506;2023-01-15T15:14:56;7.30;93.40
33655;DHT22;19997;51.274;22.506;2023-01-15T15:17:34;7.20;93.80
33655;DHT22;19997;51.274;22.506;2023-01-15T15:20:25;7.20;94.20
33655;DHT22;19997;51.274;22.506;2023-01-15T15:22:57;7.10;94.60
33655;DHT22;19997;51.274;22.506;2023-01-15T15:25:29;7.10;95.00
33655;DHT22;19997;51.274;22.506;2023-01-15T15:28:03;7.10;95.40
33655;DHT22;19997;51.274;22.506;2023-01-15T15:30:33;7.10;95.80
33655;DHT22;19997;51.274;22.506;2023-01-15T15:33:03;7.10;96.20
33655;DHT22;19997;51.274;22.506;2023-01-15T15:35:34;7.10;96.60
33655;DHT22;19997;51.274;22.506;2023-01-15T15:38:05;7.00;97.00
33655;DHT22;19997;51.274;22.506;2023-01-15T15:40:33;7.10;97.50
33655;DHT22;19997;51.274;22.506;2023-01-15T15:43:09;7.00;97.90
33655;DHT22;19997;51.274;22.506;2023-01-15T15:45:55;7.00;98.30
33655;DHT22;19997;51.274;22.506;2023-01-15T15:48:41;7.00;98.70
33655;DHT22;19997;51.274;22.506;2023-01-15T15:51:27;7.00;99.20
33655;DHT22;19997;51.274;22.506;2023-01-15T15:54:13;7.00;99.80
33655;DHT22;19997;51.274;22.506;2023-01-15T15:56:45;6.90;99.90
33655;DHT22;19997;51.274;22.506;2023-01-15T15:59:34;6.90;99.90
33655;DHT22;19997;51.274;22.506;2023-01-15T16:02:14;6.80;99.90
33655;DHT22;19997;51.274;22.506;2023-01-15T16:04:47;6.80;99.90
33655;DHT22;19997;51.274;22.506;2023-01-15T16:07:21;6.80;99.90
33655;DHT22;19997;51.274;22.506;2023-01-15T16:09:53;6.80;99.90
33655;DHT22;19997;51.274;22.506;2023-01-15T16:12:22;6.80;99.90